TimeCET,TemperatureF,Dew PointF,Humidity,Sea Level PressureIn,VisibilityMPH,Wind Direction,Wind SpeedMPH,Gust SpeedMPH,PrecipitationIn,Events,Conditions,WindDirDegrees,DateUTC
12:00 AM,28,28,98,,7,NNE,27.6,,,,Partly Cloudy,30,2013-11-24 23:00:00
12:55 AM,28.4,26.6,93,29.65,-9999.0,North,-9999.0,-,N/A,,Scattered Clouds,0,2013-11-24 23:55:00
1:00 AM,28,27,96,,7,NNE,23.0,,,,,30,2013-11-25 00:00:00
1:55 AM,28.4,28.4,100,29.65,-9999.0,North,-9999.0,-,N/A,,Scattered Clouds,0,2013-11-25 00:55:00
2:00 AM,29,28,92,,7,NNE,18.4,,,,Partly Cloudy,30,2013-11-25 01:00:00
2:55 AM,28.4,26.6,93,29.65,-9999.0,North,-9999.0,-,N/A,,Scattered Clouds,0,2013-11-25 01:55:00
3:00 AM,29,26,85,,12,NNE,21.9,,,,Partly Cloudy,20,2013-11-25 02:00:00
3:55 AM,28.4,26.6,93,29.68,-9999.0,North,-9999.0,-,N/A,,Scattered Clouds,0,2013-11-25 02:55:00
4:55 AM,28.4,28.4,100,29.68,-9999.0,North,-9999.0,-,N/A,,Scattered Clouds,0,2013-11-25 03:55:00
5:55 AM,28.4,26.6,93,29.68,-9999.0,North,-9999.0,-,N/A,,Scattered Clouds,0,2013-11-25 04:55:00
6:55 AM,28.4,26.6,93,29.68,-9999.0,North,-9999.0,-,N/A,,Mostly Cloudy,0,2013-11-25 05:55:00
7:00 AM,28,26,91,,9,NE,17.3,,,,,40,2013-11-25 06:00:00
12:00 PM,28,28,98,,0,NE,18.4,,,Fog,Heavy Fog,40,2013-11-25 11:00:00
12:55 PM,26.6,26.6,100,29.71,0.0,North,-9999.0,-,N/A,Fog,Light Freezing Fog,0,2013-11-25 11:55:00
1:00 PM,27,27,100,,0,NE,28.8,,,,,50,2013-11-25 12:00:00
1:55 PM,26.6,26.6,100,29.68,0.0,North,-9999.0,-,N/A,Fog,Light Freezing Fog,0,2013-11-25 12:55:00
2:00 PM,27,27,100,,0,ENE,36.8,,,Fog,Heavy Fog,60,2013-11-25 13:00:00
6:55 PM,19.4,19.4,100,29.62,0.0,North,-9999.0,-,N/A,Fog,Light Freezing Fog,0,2013-11-25 17:55:00
7:00 PM,20,20,99,,0,ENE,36.8,,,,,70,2013-11-25 18:00:00
7:55 PM,17.6,17.6,100,29.62,0.0,North,-9999.0,-,N/A,Fog,Light Freezing Fog,0,2013-11-25 18:55:00
8:00 PM,18,18,100,,0,ENE,39.1,,,Fog,Heavy Fog,60,2013-11-25 19:00:00
8:55 PM,15.8,15.8,100,29.59,0.0,North,-9999.0,-,N/A,Fog,Light Freezing Fog,0,2013-11-25 19:55:00
9:00 PM,17,16,96,,0,ENE,36.8,,,Fog,Heavy Fog,70,2013-11-25 20:00:00
9:55 PM,15.8,15.8,100,29.62,0.0,North,-9999.0,-,N/A,Fog,Light Freezing Fog,0,2013-11-25 20:55:00
10:55 PM,15.8,15.8,100,29.62,0.0,North,-9999.0,-,N/A,Fog,Light Freezing Fog,0,2013-11-25 21:55:00
11:55 PM,15.8,15.8,100,29.62,0.0,North,-9999.0,-,N/A,Fog,Light Freezing Fog,0,2013-11-25 22:55:00